createdAt,value
2022-09-11T00:01:37.933Z,21.63
2022-09-11T00:04:06.394Z,21.53
2022-09-11T00:06:34.280Z,21.56
2022-09-11T00:09:05.678Z,21.60
2022-09-11T00:11:40.791Z,21.59
2022-09-11T00:14:13.861Z,21.67
2022-09-11T00:16:45.329Z,21.60
2022-09-11T00:19:16.271Z,21.48
2022-09-11T00:21:43.753Z,21.59
2022-09-11T00:24:12.589Z,21.75
2022-09-11T00:26:42.570Z,21.72
2022-09-11T00:29:12.058Z,21.66
2022-09-11T00:31:39.916Z,21.61
2022-09-11T00:34:08.046Z,21.44
2022-09-11T00:36:39.224Z,21.44
2022-09-11T00:39:08.033Z,21.42
2022-09-11T00:41:39.188Z,21.36
2022-09-11T00:44:08.792Z,21.46
2022-09-11T00:46:42.207Z,21.28
2022-09-11T00:49:24.389Z,21.25
2022-09-11T00:52:01.002Z,21.23
2022-09-11T00:54:36.000Z,21.36
2022-09-11T00:57:08.106Z,21.36
2022-09-11T00:59:39.078Z,21.29
2022-09-11T01:02:13.796Z,21.28
2022-09-11T01:04:41.483Z,21.35
2022-09-11T01:07:11.627Z,21.38
2022-09-11T01:09:39.769Z,21.45
2022-09-11T01:12:19.796Z,21.42
2022-09-11T01:15:04.614Z,21.64
2022-09-11T01:17:55.302Z,21.57
2022-09-11T01:20:52.654Z,21.50
2022-09-11T01:23:33.688Z,21.56
2022-09-11T01:26:20.421Z,21.61
2022-09-11T01:29:05.693Z,21.57
2022-09-11T01:31:49.487Z,21.71
2022-09-11T01:34:23.221Z,21.72
2022-09-11T01:37:01.357Z,21.78
2022-09-11T01:39:40.494Z,21.80
2022-09-11T01:42:14.894Z,21.66
2022-09-11T01:45:00.396Z,21.78
2022-09-11T01:47:29.373Z,21.92
2022-09-11T01:50:03.547Z,21.99
2022-09-11T01:52:42.496Z,22.05
2022-09-11T01:55:16.837Z,22.06
2022-09-11T01:57:55.518Z,22.03
2022-09-11T02:00:23.735Z,21.88
2022-09-11T02:03:00.670Z,21.75
2022-09-11T02:05:48.428Z,21.64
2022-09-11T02:08:30.721Z,21.59
2022-09-11T02:11:18.247Z,21.60
2022-09-11T02:14:17.344Z,21.61
2022-09-11T02:16:53.808Z,21.73
2022-09-11T02:19:27.927Z,21.63
2022-09-11T02:21:58.010Z,21.64
2022-09-11T02:24:27.496Z,21.67
2022-09-11T02:27:05.233Z,21.68
2022-09-11T02:29:34.182Z,21.60
2022-09-11T02:32:03.785Z,21.69
2022-09-11T02:34:37.692Z,21.53
2022-09-11T02:37:29.682Z,21.25
2022-09-11T02:40:19.531Z,21.41
2022-09-11T02:43:09.297Z,21.30
2022-09-11T02:45:54.357Z,21.44
2022-09-11T02:48:53.972Z,21.17
2022-09-11T02:51:56.248Z,21.01
2022-09-11T02:54:33.822Z,20.91
2022-09-11T02:57:15.407Z,20.88
2022-09-11T02:59:52.932Z,20.77
2022-09-11T03:02:23.658Z,20.98
2022-09-11T03:04:51.817Z,20.90
2022-09-11T03:07:19.562Z,20.96
2022-09-11T03:09:47.625Z,20.89
2022-09-11T03:12:20.880Z,20.82
2022-09-11T03:14:52.588Z,20.67
2022-09-11T03:17:21.931Z,20.40
2022-09-11T03:19:49.944Z,20.47
2022-09-11T03:22:19.112Z,20.49
2022-09-11T03:24:48.195Z,20.62
2022-09-11T03:27:17.310Z,20.69
2022-09-11T03:29:46.568Z,20.63
2022-09-11T03:32:16.224Z,20.68
2022-09-11T03:34:43.832Z,20.66
2022-09-11T03:37:11.416Z,20.47
2022-09-11T03:39:39.829Z,20.30
2022-09-11T03:42:07.464Z,20.36
2022-09-11T03:44:35.538Z,20.48
2022-09-11T03:47:03.152Z,20.35
2022-09-11T03:49:30.936Z,20.10
2022-09-11T03:51:58.477Z,20.15
2022-09-11T03:54:26.085Z,20.02
2022-09-11T03:56:53.791Z,19.83
2022-09-11T03:59:21.454Z,19.57
2022-09-11T04:01:51.021Z,19.35
2022-09-11T04:04:19.355Z,19.60
2022-09-11T04:06:46.817Z,19.42
2022-09-11T04:09:14.538Z,19.50
2022-09-11T04:11:42.170Z,19.39
2022-09-11T04:14:22.658Z,19.23
2022-09-11T04:16:53.951Z,19.09
2022-09-11T04:19:23.831Z,19.25
2022-09-11T04:21:51.903Z,19.41
2022-09-11T04:24:19.844Z,19.52
2022-09-11T04:26:47.993Z,19.41
2022-09-11T04:29:22.587Z,19.49
2022-09-11T04:31:51.343Z,19.58
2022-09-11T04:34:20.239Z,19.54
2022-09-11T04:36:47.843Z,19.66
2022-09-11T04:39:20.687Z,19.54
2022-09-11T04:41:49.423Z,19.58
2022-09-11T04:44:17.463Z,19.66
2022-09-11T04:46:45.801Z,19.68
2022-09-11T04:49:14.976Z,19.73
2022-09-11T04:51:44.044Z,19.55
2022-09-11T04:54:18.033Z,19.44
2022-09-11T04:56:46.816Z,19.34
2022-09-11T04:59:18.223Z,19.49
2022-09-11T05:01:51.740Z,19.57
2022-09-11T05:04:25.337Z,19.63
2022-09-11T05:06:55.184Z,19.60
2022-09-11T05:09:22.769Z,19.55
2022-09-11T05:11:50.807Z,19.68
2022-09-11T05:14:18.582Z,19.54
2022-09-11T05:16:50.170Z,19.63
2022-09-11T05:19:19.636Z,19.70
2022-09-11T05:21:48.295Z,19.91
2022-09-11T05:24:16.652Z,20.02
2022-09-11T05:26:44.607Z,20.12
2022-09-11T05:29:15.826Z,20.13
2022-09-11T05:32:01.360Z,20.56
2022-09-11T05:34:29.901Z,20.84
2022-09-11T05:36:58.731Z,21.14
2022-09-11T05:39:29.863Z,21.21
2022-09-11T05:41:58.317Z,21.49
2022-09-11T05:44:31.113Z,21.64
2022-09-11T05:46:59.347Z,21.54
2022-09-11T05:49:26.851Z,21.52
2022-09-11T05:51:54.416Z,21.08
2022-09-11T05:54:22.861Z,20.89
2022-09-11T05:56:50.410Z,20.76
2022-09-11T05:59:24.348Z,20.88
2022-09-11T06:01:53.864Z,20.72
2022-09-11T06:04:34.284Z,20.79
2022-09-11T06:07:02.123Z,20.95
2022-09-11T06:09:30.649Z,21.07
2022-09-11T06:11:58.643Z,20.93
2022-09-11T06:14:27.695Z,21.05
2022-09-11T06:16:57.283Z,21.27
2022-09-11T06:19:26.965Z,21.43
2022-09-11T06:21:56.711Z,21.54
2022-09-11T06:24:29.241Z,21.64
2022-09-11T06:26:57.655Z,21.81
2022-09-11T06:29:27.806Z,21.86
2022-09-11T06:31:55.638Z,22.05
2022-09-11T06:34:27.737Z,22.11
2022-09-11T06:36:57.863Z,22.27
2022-09-11T06:39:26.949Z,22.32
2022-09-11T06:41:55.169Z,22.30
2022-09-11T06:44:28.647Z,22.29
2022-09-11T06:47:00.214Z,22.00
2022-09-11T06:49:27.946Z,21.91
2022-09-11T06:52:14.548Z,22.11
2022-09-11T06:54:50.615Z,22.18
2022-09-11T06:57:19.971Z,22.22
2022-09-11T06:59:47.504Z,22.18
2022-09-11T07:02:17.740Z,22.45
2022-09-11T07:04:47.553Z,22.54
2022-09-11T07:07:15.705Z,22.44
2022-09-11T07:09:43.547Z,22.41
2022-09-11T07:12:12.808Z,22.59
2022-09-11T07:14:41.422Z,22.69
2022-09-11T07:17:16.800Z,22.71
2022-09-11T07:19:47.986Z,22.88
2022-09-11T07:22:16.787Z,23.08
2022-09-11T07:24:47.318Z,23.21
2022-09-11T07:27:16.744Z,23.45
2022-09-11T07:29:44.786Z,23.41
2022-09-11T07:32:13.047Z,23.42
2022-09-11T07:34:41.219Z,23.50
2022-09-11T07:37:11.634Z,23.71
2022-09-11T07:39:40.687Z,23.56
2022-09-11T07:42:15.461Z,23.32
2022-09-11T07:44:43.803Z,23.03
2022-09-11T07:47:11.768Z,23.04
2022-09-11T07:49:48.248Z,23.04
2022-09-11T07:52:16.942Z,23.25
2022-09-11T07:54:51.323Z,23.28
2022-09-11T07:57:22.081Z,23.47
2022-09-11T07:59:51.631Z,23.58
2022-09-11T08:02:20.683Z,23.31
2022-09-11T08:04:49.259Z,23.44
2022-09-11T08:07:17.822Z,23.70
2022-09-11T08:09:45.632Z,23.30
2022-09-11T08:12:14.062Z,23.30
2022-09-11T08:14:42.138Z,23.29
2022-09-11T08:17:16.335Z,23.38
2022-09-11T08:19:44.301Z,23.52
2022-09-11T08:22:13.042Z,23.62
2022-09-11T08:24:44.604Z,23.92
2022-09-11T08:27:16.641Z,23.59
2022-09-11T08:29:46.028Z,23.49
2022-09-11T08:32:14.062Z,23.45
2022-09-11T08:34:42.311Z,23.67
2022-09-11T08:37:10.896Z,23.48
2022-09-11T08:39:38.975Z,23.60
2022-09-11T08:42:14.151Z,23.75
2022-09-11T08:44:53.625Z,23.89
2022-09-11T08:47:50.711Z,23.63
2022-09-11T08:50:23.603Z,24.03
2022-09-11T08:52:54.251Z,24.13
2022-09-11T08:55:41.400Z,23.99
2022-09-11T08:58:33.677Z,24.46
2022-09-11T09:01:36.047Z,24.53
2022-09-11T09:04:26.958Z,24.71
2022-09-11T09:07:32.202Z,24.83
2022-09-11T09:10:29.374Z,24.72
2022-09-11T09:13:06.900Z,25.66
2022-09-11T09:16:06.540Z,25.55
2022-09-11T09:18:41.894Z,26.10
2022-09-11T09:21:20.353Z,25.76
2022-09-11T09:23:59.094Z,25.94
2022-09-11T09:26:40.866Z,25.94
2022-09-11T09:29:17.953Z,25.46
2022-09-11T09:31:47.812Z,25.66
2022-09-11T09:34:20.927Z,25.97
2022-09-11T09:37:22.337Z,26.00
2022-09-11T09:39:52.062Z,26.49
2022-09-11T09:42:59.153Z,26.83
2022-09-11T09:45:38.799Z,26.55
2022-09-11T09:48:10.499Z,26.92
2022-09-11T09:50:41.393Z,27.87
2022-09-11T09:53:18.279Z,28.72
2022-09-11T09:55:47.577Z,29.07
2022-09-11T09:58:15.654Z,28.44
2022-09-11T10:00:43.318Z,28.33
2022-09-11T10:03:28.679Z,29.59
2022-09-11T10:05:56.811Z,30.49
2022-09-11T10:08:33.940Z,30.43
2022-09-11T10:11:06.271Z,31.35
2022-09-11T10:13:38.179Z,31.61
2022-09-11T10:16:23.845Z,31.32
2022-09-11T10:18:53.448Z,32.20
2022-09-11T10:21:23.211Z,33.25
2022-09-11T10:24:22.690Z,33.48
2022-09-11T10:26:53.279Z,34.66
2022-09-11T10:29:26.552Z,34.07
2022-09-11T10:31:56.942Z,34.06
2022-09-11T10:34:26.691Z,34.92
2022-09-11T10:37:02.158Z,34.01
2022-09-11T10:39:35.043Z,32.91
2022-09-11T10:42:11.907Z,33.10
2022-09-11T10:44:43.197Z,34.00
2022-09-11T10:47:22.932Z,35.87
2022-09-11T10:49:50.704Z,35.13
2022-09-11T10:52:22.161Z,36.31
2022-09-11T10:55:15.796Z,36.25
2022-09-11T10:57:59.729Z,36.10
2022-09-11T11:00:32.193Z,36.74
2022-09-11T11:03:06.855Z,35.37
2022-09-11T11:05:40.445Z,36.68
2022-09-11T11:08:27.887Z,36.09
2022-09-11T11:11:18.140Z,38.03
2022-09-11T11:14:00.538Z,38.59
2022-09-11T11:16:34.074Z,38.36
2022-09-11T11:19:07.971Z,38.39
2022-09-11T11:21:47.359Z,38.38
2022-09-11T11:24:41.841Z,39.77
2022-09-11T11:27:33.669Z,40.46
2022-09-11T11:30:20.868Z,38.97
2022-09-11T11:33:10.147Z,38.35
2022-09-11T11:36:15.562Z,37.32
2022-09-11T11:39:02.041Z,36.91
2022-09-11T11:41:35.316Z,36.84
2022-09-11T11:44:06.796Z,36.68
2022-09-11T11:46:46.101Z,36.72
2022-09-11T11:49:19.597Z,37.43
2022-09-11T11:52:03.795Z,37.20
2022-09-11T11:54:55.502Z,37.48
2022-09-11T11:57:31.546Z,37.94
2022-09-11T12:00:10.586Z,38.95
2022-09-11T12:02:46.870Z,37.80
2022-09-11T12:05:19.019Z,37.17
2022-09-11T12:07:48.415Z,37.30
2022-09-11T12:10:30.613Z,37.33
2022-09-11T12:13:01.888Z,37.51
2022-09-11T12:15:34.345Z,37.39
2022-09-11T12:18:06.955Z,36.54
2022-09-11T12:20:37.938Z,36.99
2022-09-11T12:23:24.850Z,36.44
2022-09-11T12:26:20.432Z,36.60
2022-09-11T12:28:50.164Z,36.37
2022-09-11T12:31:18.274Z,36.06
2022-09-11T12:33:51.075Z,36.46
2022-09-11T12:36:19.346Z,37.04
2022-09-11T12:38:49.726Z,37.20
2022-09-11T12:41:27.090Z,36.80
2022-09-11T12:43:55.211Z,37.52
2022-09-11T12:46:23.186Z,37.88
2022-09-11T12:49:21.075Z,38.12
2022-09-11T12:51:55.267Z,37.94
2022-09-11T12:54:25.723Z,37.66
2022-09-11T12:57:05.833Z,38.02
2022-09-11T12:59:39.682Z,38.61
2022-09-11T13:02:29.110Z,37.96
2022-09-11T13:04:58.126Z,37.97
2022-09-11T13:07:42.106Z,39.14
2022-09-11T13:10:28.853Z,39.03
2022-09-11T13:12:59.304Z,39.68
2022-09-11T13:15:37.844Z,40.92
2022-09-11T13:18:37.881Z,41.99
2022-09-11T13:21:11.304Z,41.71
2022-09-11T13:23:39.014Z,43.22
2022-09-11T13:26:08.006Z,41.47
2022-09-11T13:28:47.368Z,43.47
2022-09-11T13:31:21.439Z,43.50
2022-09-11T13:33:51.460Z,43.89
2022-09-11T13:36:24.220Z,44.12
2022-09-11T13:39:00.211Z,42.00
2022-09-11T13:41:32.223Z,42.02
2022-09-11T13:44:01.712Z,43.89
2022-09-11T13:46:31.566Z,43.76
2022-09-11T13:49:22.028Z,45.23
2022-09-11T13:51:49.673Z,44.63
2022-09-11T13:54:31.064Z,45.11
2022-09-11T13:57:03.161Z,45.93
2022-09-11T13:59:47.402Z,44.69
2022-09-11T14:02:34.670Z,45.07
2022-09-11T14:05:05.405Z,45.24
2022-09-11T14:07:41.037Z,46.74
2022-09-11T14:10:20.548Z,45.59
2022-09-11T14:12:55.615Z,47.22
2022-09-11T14:15:48.773Z,46.02
2022-09-11T14:18:39.950Z,46.32
2022-09-11T14:21:17.560Z,45.38
2022-09-11T14:23:53.234Z,46.66
2022-09-11T14:26:23.054Z,46.56
2022-09-11T14:29:01.720Z,46.18
2022-09-11T14:31:38.097Z,45.63
2022-09-11T14:34:27.988Z,45.59
2022-09-11T14:37:05.123Z,46.94
2022-09-11T14:39:36.110Z,46.95
2022-09-11T14:42:07.345Z,47.36
2022-09-11T14:44:39.491Z,46.75
2022-09-11T14:47:10.027Z,47.58
2022-09-11T14:49:37.973Z,48.58
2022-09-11T14:52:06.749Z,47.23
2022-09-11T14:54:34.205Z,45.88
2022-09-11T14:57:03.729Z,46.86
2022-09-11T14:59:31.379Z,47.15
2022-09-11T15:01:59.027Z,45.83
2022-09-11T15:04:27.440Z,46.13
2022-09-11T15:06:56.263Z,46.21
2022-09-11T15:09:24.717Z,46.38
2022-09-11T15:11:53.116Z,45.43
2022-09-11T15:14:38.618Z,45.35
2022-09-11T15:17:11.896Z,44.80
2022-09-11T15:19:40.946Z,43.97
2022-09-11T15:22:08.791Z,44.61
2022-09-11T15:24:39.162Z,44.65
2022-09-11T15:27:07.507Z,43.40
2022-09-11T15:29:34.995Z,43.18
2022-09-11T15:32:07.690Z,44.45
2022-09-11T15:34:35.257Z,43.00
2022-09-11T15:37:03.859Z,43.92
2022-09-11T15:39:33.839Z,43.56
2022-09-11T15:42:02.069Z,43.64
2022-09-11T15:44:30.224Z,43.92
2022-09-11T15:46:59.179Z,43.62
2022-09-11T15:49:29.438Z,43.68
2022-09-11T15:51:58.103Z,41.79
2022-09-11T15:54:26.588Z,41.13
2022-09-11T15:56:55.877Z,40.07
2022-09-11T15:59:23.804Z,38.96
2022-09-11T16:01:51.484Z,37.85
2022-09-11T16:04:21.967Z,35.68
2022-09-11T16:06:50.306Z,34.41
2022-09-11T16:09:21.468Z,33.30
2022-09-11T16:11:50.579Z,32.34
2022-09-11T16:14:21.286Z,31.58
2022-09-11T16:16:49.834Z,31.28
2022-09-11T16:19:20.472Z,30.93
2022-09-11T16:21:49.279Z,30.93
2022-09-11T16:24:18.416Z,30.79
2022-09-11T16:26:47.004Z,30.96
2022-09-11T16:29:15.484Z,30.44
2022-09-11T16:31:43.090Z,29.81
2022-09-11T16:34:11.164Z,29.64
2022-09-11T16:36:38.867Z,29.64
2022-09-11T16:39:11.634Z,29.86
2022-09-11T16:41:39.711Z,29.37
2022-09-11T16:44:10.499Z,29.05
2022-09-11T16:46:39.749Z,29.01
2022-09-11T16:49:07.989Z,28.98
2022-09-11T16:51:35.815Z,28.97
2022-09-11T16:54:04.350Z,29.01
2022-09-11T16:56:32.072Z,29.00
2022-09-11T16:58:59.744Z,28.65
2022-09-11T17:01:28.581Z,28.44
2022-09-11T17:03:57.948Z,28.58
2022-09-11T17:06:30.317Z,28.63
2022-09-11T17:09:00.438Z,28.35
2022-09-11T17:11:31.077Z,28.32
2022-09-11T17:14:01.698Z,28.30
2022-09-11T17:16:32.255Z,28.23
2022-09-11T17:19:09.647Z,28.33
2022-09-11T17:21:38.008Z,28.02
2022-09-11T17:24:07.522Z,27.76
2022-09-11T17:26:35.439Z,27.78
2022-09-11T17:29:05.750Z,27.44
2022-09-11T17:31:33.399Z,27.20
2022-09-11T17:34:01.272Z,27.33
2022-09-11T17:36:28.901Z,26.96
2022-09-11T17:38:59.564Z,26.82
2022-09-11T17:41:27.290Z,26.74
2022-09-11T17:43:55.186Z,26.56
2022-09-11T17:46:26.208Z,26.59
2022-09-11T17:48:54.160Z,26.81
2022-09-11T17:51:25.056Z,26.63
2022-09-11T17:53:56.554Z,26.49
2022-09-11T17:56:32.927Z,26.41
2022-09-11T17:59:00.996Z,26.50
2022-09-11T18:01:31.584Z,26.57
2022-09-11T18:03:59.880Z,26.42
2022-09-11T18:06:36.860Z,26.25
2022-09-11T18:09:16.191Z,26.15
2022-09-11T18:11:46.519Z,26.06
2022-09-11T18:14:15.384Z,26.08
2022-09-11T18:16:45.327Z,26.01
2022-09-11T18:19:16.789Z,25.91
2022-09-11T18:21:49.304Z,25.83
2022-09-11T18:24:20.149Z,25.86
2022-09-11T18:26:57.196Z,25.63
2022-09-11T18:29:27.407Z,25.64
2022-09-11T18:31:55.193Z,25.66
2022-09-11T18:34:25.691Z,25.66
2022-09-11T18:36:53.531Z,25.66
2022-09-11T18:39:22.018Z,25.55
2022-09-11T18:41:52.788Z,25.36
2022-09-11T18:44:22.915Z,25.27
2022-09-11T18:46:55.119Z,25.30
2022-09-11T18:49:24.480Z,25.27
2022-09-11T18:51:53.760Z,25.01
2022-09-11T18:54:21.551Z,25.09
2022-09-11T18:56:50.497Z,24.92
2022-09-11T18:59:20.184Z,24.58
2022-09-11T19:01:48.713Z,24.43
2022-09-11T19:04:16.961Z,24.33
2022-09-11T19:06:45.353Z,24.19
2022-09-11T19:09:14.906Z,24.25
2022-09-11T19:11:43.276Z,24.17
2022-09-11T19:14:12.343Z,24.12
2022-09-11T19:16:40.645Z,24.09
2022-09-11T19:19:08.426Z,24.01
2022-09-11T19:21:37.864Z,23.86
2022-09-11T19:24:07.561Z,23.74
2022-09-11T19:26:42.342Z,23.67
2022-09-11T19:29:11.143Z,23.73
2022-09-11T19:31:39.845Z,23.77
2022-09-11T19:34:11.888Z,23.72
2022-09-11T19:36:41.392Z,23.72
2022-09-11T19:39:10.522Z,23.86
2022-09-11T19:41:39.187Z,23.60
2022-09-11T19:44:11.542Z,23.50
2022-09-11T19:46:41.014Z,23.47
2022-09-11T19:49:11.292Z,23.38
2022-09-11T19:51:42.212Z,23.50
2022-09-11T19:54:12.491Z,23.32
2022-09-11T19:56:40.831Z,23.44
2022-09-11T19:59:09.437Z,23.32
2022-09-11T20:01:37.932Z,23.22
2022-09-11T20:04:06.147Z,22.99
2022-09-11T20:06:35.497Z,22.90
2022-09-11T20:11:52.570Z,22.80
2022-09-11T20:16:47.654Z,22.91
2022-09-11T20:19:17.363Z,22.75
2022-09-11T20:21:44.986Z,22.89
2022-09-11T20:24:12.935Z,22.84
2022-09-11T20:26:40.917Z,22.57
2022-09-11T20:29:13.998Z,22.42
2022-09-11T20:31:49.768Z,22.32
2022-09-11T20:34:19.255Z,22.25
2022-09-11T20:36:47.199Z,22.20
2022-09-11T20:39:16.360Z,22.27
2022-09-11T20:41:44.597Z,22.16
2022-09-11T20:44:12.911Z,22.16
2022-09-11T20:46:41.153Z,22.23
2022-09-11T20:49:08.786Z,22.34
2022-09-11T20:51:36.735Z,22.35
2022-09-11T20:54:04.860Z,22.45
2022-09-11T20:56:34.280Z,22.59
2022-09-11T20:59:02.261Z,22.38
2022-09-11T21:01:34.963Z,22.31
2022-09-11T21:04:05.564Z,22.19
2022-09-11T21:06:34.552Z,22.31
2022-09-11T21:09:06.674Z,22.13
2022-09-11T21:11:36.082Z,22.17
2022-09-11T21:14:04.886Z,22.25
2022-09-11T21:16:33.271Z,22.31
2022-09-11T21:19:02.614Z,22.24
2022-09-11T21:21:31.483Z,22.26
2022-09-11T21:24:02.357Z,22.19
2022-09-11T21:26:31.885Z,22.03
2022-09-11T21:29:01.949Z,21.98
2022-09-11T21:31:30.563Z,22.10
2022-09-11T21:33:58.978Z,22.00
2022-09-11T21:36:27.163Z,22.04
2022-09-11T21:38:54.770Z,22.00
2022-09-11T21:41:22.264Z,21.77
2022-09-11T21:43:49.828Z,21.66
2022-09-11T21:46:18.299Z,21.76
2022-09-11T21:48:45.851Z,21.84
2022-09-11T21:51:20.189Z,21.86
2022-09-11T21:53:49.897Z,21.63
2022-09-11T21:56:27.132Z,21.55
2022-09-11T21:58:55.197Z,21.41
2022-09-11T22:01:25.024Z,21.32
2022-09-11T22:03:54.740Z,21.25
2022-09-11T22:06:24.575Z,21.31
2022-09-11T22:08:53.515Z,21.45
2022-09-11T22:11:21.612Z,21.46
2022-09-11T22:13:49.617Z,21.25
2022-09-11T22:16:19.351Z,21.11
2022-09-11T22:18:50.768Z,21.12
2022-09-11T22:21:19.319Z,21.23
2022-09-11T22:23:47.396Z,21.38
2022-09-11T22:26:17.807Z,21.49
2022-09-11T22:28:46.049Z,21.37
2022-09-11T22:31:17.496Z,21.33
2022-09-11T22:33:45.463Z,21.29
2022-09-11T22:36:20.288Z,21.32
2022-09-11T22:38:49.195Z,21.39
2022-09-11T22:41:18.418Z,21.38
2022-09-11T22:43:47.671Z,21.32
2022-09-11T22:46:16.547Z,21.26
2022-09-11T22:48:44.591Z,21.17
2022-09-11T22:51:12.740Z,21.23
2022-09-11T22:53:40.431Z,21.12
2022-09-11T22:56:08.365Z,21.22
2022-09-11T22:58:38.395Z,21.13
2022-09-11T23:01:08.578Z,21.31
2022-09-11T23:03:36.329Z,21.25
2022-09-11T23:06:23.263Z,21.10
2022-09-11T23:08:51.258Z,20.99
2022-09-11T23:11:20.052Z,20.87
2022-09-11T23:13:50.460Z,20.83
2022-09-11T23:16:23.881Z,20.94
2022-09-11T23:18:56.556Z,20.94
2022-09-11T23:21:24.681Z,21.07
2022-09-11T23:23:54.788Z,21.00
2022-09-11T23:26:24.111Z,21.02
2022-09-11T23:28:52.843Z,20.86
2022-09-11T23:31:24.903Z,20.80
2022-09-11T23:33:54.674Z,20.68
2022-09-11T23:36:24.055Z,20.61
2022-09-11T23:38:52.214Z,20.76
2022-09-11T23:41:21.547Z,20.61
2022-09-11T23:43:50.310Z,20.55
2022-09-11T23:46:18.747Z,20.61
2022-09-11T23:48:47.019Z,20.64
2022-09-11T23:51:15.700Z,20.73
2022-09-11T23:53:45.276Z,20.79
2022-09-11T23:56:14.487Z,20.68
2022-09-11T23:58:42.762Z,20.72
